createdAt,value
2023-05-18T00:00:56.000Z,474.39959716796875
2023-05-18T00:01:58.000Z,475.8539733886719
2023-05-18T00:03:01.000Z,478.5404968261719
2023-05-18T00:04:03.000Z,478.4228210449219
2023-05-18T00:05:05.000Z,477.56646728515625
2023-05-18T00:06:07.000Z,474.5972900390625
2023-05-18T00:07:09.000Z,472.4140319824219
2023-05-18T00:08:11.000Z,469.0450744628906
2023-05-18T00:09:13.000Z,469.0418395996094
2023-05-18T00:10:16.000Z,466.66607666015625
2023-05-18T00:11:18.000Z,467.70166015625
2023-05-18T00:12:20.000Z,468.9935607910156
2023-05-18T00:13:22.000Z,466.7633972167969
2023-05-18T00:14:24.000Z,466.53973388671875
2023-05-18T00:15:26.000Z,466.9228210449219
2023-05-18T00:16:28.000Z,465.3016052246094
2023-05-18T00:17:31.000Z,463.9307861328125
2023-05-18T00:18:33.000Z,463.71661376953125
2023-05-18T00:19:35.000Z,462.6423645019531
2023-05-18T00:20:37.000Z,463.08245849609375
2023-05-18T00:21:39.000Z,462.9942932128906
2023-05-18T00:22:41.000Z,463.2795715332031
2023-05-18T00:23:43.000Z,465.23541259765625
2023-05-18T00:24:46.000Z,463.7861328125
2023-05-18T00:25:48.000Z,464.28985595703125
2023-05-18T00:26:50.000Z,464.650634765625
2023-05-18T00:27:52.000Z,464.1842346191406
2023-05-18T00:28:54.000Z,466.25701904296875
2023-05-18T00:29:56.000Z,469.098876953125
2023-05-18T00:30:59.000Z,469.5622863769531
2023-05-18T00:32:01.000Z,471.0508117675781
2023-05-18T00:33:03.000Z,471.9910888671875
2023-05-18T00:34:05.000Z,473.828369140625
2023-05-18T00:35:07.000Z,474.8052062988281
2023-05-18T00:36:10.000Z,476.0190124511719
2023-05-18T00:37:12.000Z,476.1950988769531
2023-05-18T00:38:14.000Z,475.05267333984375
2023-05-18T00:39:16.000Z,473.7724609375
2023-05-18T00:40:18.000Z,472.2719421386719
2023-05-18T00:41:20.000Z,469.23455810546875
2023-05-18T00:42:22.000Z,469.922607421875
2023-05-18T00:43:25.000Z,468.78411865234375
2023-05-18T00:44:27.000Z,466.9351501464844
2023-05-18T00:45:29.000Z,466.8056640625
2023-05-18T00:46:31.000Z,468.3561706542969
2023-05-18T00:47:33.000Z,467.9684753417969
2023-05-18T00:48:35.000Z,467.5223083496094
2023-05-18T00:49:38.000Z,469.0319519042969
2023-05-18T00:50:40.000Z,468.3872375488281
2023-05-18T00:51:42.000Z,466.7989501953125
2023-05-18T00:52:44.000Z,466.3402099609375
2023-05-18T00:53:46.000Z,465.5072021484375
2023-05-18T00:54:48.000Z,463.8930358886719
2023-05-18T00:55:51.000Z,462.69708251953125
2023-05-18T00:56:53.000Z,461.4656066894531
2023-05-18T00:57:55.000Z,460.0090637207031
2023-05-18T00:58:57.000Z,462.0013122558594
2023-05-18T00:59:59.000Z,463.36810302734375
2023-05-18T01:01:01.000Z,465.5657043457031
2023-05-18T01:02:04.000Z,465.4440002441406
2023-05-18T01:03:06.000Z,467.6809997558594
2023-05-18T01:04:08.000Z,470.1842956542969
2023-05-18T01:05:10.000Z,469.6886901855469
2023-05-18T01:06:12.000Z,469.66534423828125
2023-05-18T01:07:14.000Z,470.4549255371094
2023-05-18T01:08:17.000Z,469.4180603027344
2023-05-18T01:09:19.000Z,470.1893615722656
2023-05-18T01:10:21.000Z,469.96661376953125
2023-05-18T01:11:23.000Z,467.37445068359375
2023-05-18T01:12:25.000Z,464.7867736816406
2023-05-18T01:13:27.000Z,464.4808044433594
2023-05-18T01:14:30.000Z,463.874267578125
2023-05-18T01:15:32.000Z,463.300537109375
2023-05-18T01:16:34.000Z,464.10797119140625
2023-05-18T01:17:36.000Z,465.43218994140625
2023-05-18T01:18:38.000Z,465.351806640625
2023-05-18T01:19:40.000Z,464.131103515625
2023-05-18T01:20:43.000Z,461.9453430175781
2023-05-18T01:21:45.000Z,461.8898620605469
2023-05-18T01:22:47.000Z,461.0509948730469
2023-05-18T01:23:49.000Z,462.8069763183594
2023-05-18T01:24:51.000Z,462.8750915527344
2023-05-18T01:25:53.000Z,462.76116943359375
2023-05-18T01:26:55.000Z,462.7497863769531
2023-05-18T01:27:58.000Z,460.8016662597656
2023-05-18T01:29:00.000Z,459.2693786621094
2023-05-18T01:30:02.000Z,459.5315246582031
2023-05-18T01:31:04.000Z,459.39434814453125
2023-05-18T01:32:06.000Z,460.10882568359375
2023-05-18T01:33:09.000Z,460.80816650390625
2023-05-18T01:34:11.000Z,459.2548828125
2023-05-18T01:35:13.000Z,459.98199462890625
2023-05-18T01:36:15.000Z,459.65802001953125
2023-05-18T01:37:17.000Z,457.5542297363281
2023-05-18T01:38:19.000Z,457.571044921875
2023-05-18T01:39:22.000Z,459.944580078125
2023-05-18T01:40:24.000Z,463.54364013671875
2023-05-18T01:41:26.000Z,463.4558410644531
2023-05-18T01:42:28.000Z,464.71160888671875
2023-05-18T01:43:30.000Z,464.9734802246094
2023-05-18T01:44:32.000Z,466.03582763671875
2023-05-18T01:45:35.000Z,466.07855224609375
2023-05-18T01:46:37.000Z,464.0264892578125
2023-05-18T01:47:39.000Z,464.1976623535156
2023-05-18T01:48:41.000Z,464.51275634765625
2023-05-18T01:49:43.000Z,464.7824401855469
2023-05-18T01:50:45.000Z,462.45654296875
2023-05-18T01:51:48.000Z,462.5335693359375
2023-05-18T01:52:50.000Z,462.10498046875
2023-05-18T01:53:52.000Z,462.9892883300781
2023-05-18T01:54:54.000Z,463.75762939453125
2023-05-18T01:55:56.000Z,465.65771484375
2023-05-18T01:56:58.000Z,465.4731140136719
2023-05-18T01:58:00.000Z,463.29180908203125
2023-05-18T01:59:03.000Z,464.4970703125
2023-05-18T02:00:05.000Z,465.5668029785156
2023-05-18T02:01:07.000Z,466.296142578125
2023-05-18T02:02:09.000Z,466.1830139160156
2023-05-18T02:03:11.000Z,467.9639587402344
2023-05-18T02:04:13.000Z,467.56463623046875
2023-05-18T02:05:16.000Z,468.4084777832031
2023-05-18T02:06:18.000Z,468.4018249511719
2023-05-18T02:07:20.000Z,468.4053955078125
2023-05-18T02:08:22.000Z,471.21673583984375
2023-05-18T02:09:24.000Z,471.3539733886719
2023-05-18T02:10:26.000Z,470.1310119628906
2023-05-18T02:11:29.000Z,470.83831787109375
2023-05-18T02:12:31.000Z,469.6138000488281
2023-05-18T02:13:33.000Z,469.0556640625
2023-05-18T02:14:35.000Z,465.6180114746094
2023-05-18T02:15:37.000Z,462.9055480957031
2023-05-18T02:16:39.000Z,465.3910217285156
2023-05-18T02:17:41.000Z,470.5433349609375
2023-05-18T02:18:44.000Z,476.8477478027344
2023-05-18T02:19:46.000Z,477.49871826171875
2023-05-18T02:20:48.000Z,477.2958984375
2023-05-18T02:21:50.000Z,473.58123779296875
2023-05-18T02:22:52.000Z,471.25811767578125
2023-05-18T02:23:54.000Z,466.9325866699219
2023-05-18T02:24:57.000Z,463.3752136230469
2023-05-18T02:25:59.000Z,463.03057861328125
2023-05-18T02:27:01.000Z,465.6413269042969
2023-05-18T02:28:03.000Z,465.1007080078125
2023-05-18T02:29:05.000Z,466.04656982421875
2023-05-18T02:30:07.000Z,466.8465576171875
2023-05-18T02:31:09.000Z,466.58270263671875
2023-05-18T02:32:12.000Z,466.4350280761719
2023-05-18T02:33:14.000Z,464.1983947753906
2023-05-18T02:34:16.000Z,462.9478454589844
2023-05-18T02:35:18.000Z,464.0526428222656
2023-05-18T02:36:20.000Z,465.6232604980469
2023-05-18T02:37:22.000Z,467.42333984375
2023-05-18T02:38:25.000Z,468.53350830078125
2023-05-18T02:39:27.000Z,469.6926574707031
2023-05-18T02:40:29.000Z,470.7978515625
2023-05-18T02:41:31.000Z,471.3295593261719
2023-05-18T02:42:38.000Z,470.7358703613281
2023-05-18T02:43:40.000Z,473.379638671875
2023-05-18T02:44:42.000Z,474.2431640625
2023-05-18T02:45:45.000Z,473.7804870605469
2023-05-18T02:46:47.000Z,474.154052734375
2023-05-18T02:47:49.000Z,474.4901123046875
2023-05-18T02:48:51.000Z,474.5238952636719
2023-05-18T02:49:53.000Z,473.856689453125
2023-05-18T02:50:55.000Z,472.8608093261719
2023-05-18T02:51:58.000Z,473.7912902832031
2023-05-18T02:53:00.000Z,471.4254150390625
2023-05-18T02:54:02.000Z,469.1360168457031
2023-05-18T02:55:04.000Z,471.32928466796875
2023-05-18T02:56:06.000Z,470.3876953125
2023-05-18T02:57:08.000Z,470.21295166015625
2023-05-18T02:58:11.000Z,467.7568664550781
2023-05-18T02:59:13.000Z,466.5646057128906
2023-05-18T03:00:15.000Z,463.9637145996094
2023-05-18T03:01:17.000Z,464.257080078125
2023-05-18T03:02:19.000Z,466.2951965332031
2023-05-18T03:03:21.000Z,464.9923400878906
2023-05-18T03:04:23.000Z,466.8174743652344
2023-05-18T03:05:26.000Z,468.9433898925781
2023-05-18T03:06:28.000Z,469.1873474121094
2023-05-18T03:07:30.000Z,468.4322814941406
2023-05-18T03:08:32.000Z,467.12127685546875
2023-05-18T03:09:34.000Z,466.01104736328125
2023-05-18T03:10:36.000Z,465.7026672363281
2023-05-18T03:11:39.000Z,469.0116882324219
2023-05-18T03:12:41.000Z,470.7772521972656
2023-05-18T03:13:43.000Z,470.3431091308594
2023-05-18T03:14:45.000Z,471.1228332519531
2023-05-18T03:15:47.000Z,468.23040771484375
2023-05-18T03:16:49.000Z,468.7515563964844
2023-05-18T03:17:52.000Z,469.7536315917969
2023-05-18T03:18:54.000Z,469.5375061035156
2023-05-18T03:19:56.000Z,472.0918884277344
2023-05-18T03:20:58.000Z,469.84619140625
2023-05-18T03:22:00.000Z,467.9340515136719
2023-05-18T03:23:02.000Z,466.57025146484375
2023-05-18T03:24:04.000Z,465.78326416015625
2023-05-18T03:25:07.000Z,467.7308349609375
2023-05-18T03:26:09.000Z,471.0015563964844
2023-05-18T03:27:11.000Z,474.2933349609375
2023-05-18T03:28:13.000Z,475.3053894042969
2023-05-18T03:29:15.000Z,475.2957763671875
2023-05-18T03:30:17.000Z,474.04437255859375
2023-05-18T03:31:19.000Z,476.443359375
2023-05-18T03:32:22.000Z,475.6011962890625
2023-05-18T03:33:24.000Z,475.1366882324219
2023-05-18T03:34:26.000Z,473.0948791503906
2023-05-18T03:35:28.000Z,472.2839660644531
2023-05-18T03:36:30.000Z,469.6776123046875
2023-05-18T03:37:33.000Z,467.8251037597656
2023-05-18T03:38:35.000Z,466.6655578613281
2023-05-18T03:39:37.000Z,466.05340576171875
2023-05-18T03:40:39.000Z,469.584228515625
2023-05-18T03:41:41.000Z,468.99566650390625
2023-05-18T03:42:43.000Z,469.687744140625
2023-05-18T03:43:45.000Z,468.9869079589844
2023-05-18T03:44:47.000Z,471.5330505371094
2023-05-18T03:45:50.000Z,470.5339050292969
2023-05-18T03:46:52.000Z,469.93212890625
2023-05-18T03:47:54.000Z,470.6683654785156
2023-05-18T03:48:56.000Z,471.3421325683594
2023-05-18T03:49:58.000Z,471.8365783691406
2023-05-18T03:51:01.000Z,469.6750793457031
2023-05-18T03:52:03.000Z,469.13555908203125
2023-05-18T03:53:05.000Z,469.5733642578125
2023-05-18T03:54:07.000Z,469.8729553222656
2023-05-18T03:55:09.000Z,468.0702209472656
2023-05-18T03:56:11.000Z,466.91552734375
2023-05-18T03:57:13.000Z,466.76568603515625
2023-05-18T03:58:16.000Z,470.5802917480469
2023-05-18T03:59:18.000Z,471.277099609375
2023-05-18T04:00:20.000Z,470.7678527832031
2023-05-18T04:01:22.000Z,469.8764953613281
2023-05-18T04:02:24.000Z,471.0255432128906
2023-05-18T04:03:26.000Z,472.59039306640625
2023-05-18T04:04:29.000Z,473.4103088378906
2023-05-18T04:05:31.000Z,474.0209045410156
2023-05-18T04:06:33.000Z,473.93023681640625
2023-05-18T04:07:35.000Z,474.6474914550781
2023-05-18T04:08:37.000Z,474.35833740234375
2023-05-18T04:09:39.000Z,474.2567443847656
2023-05-18T04:10:41.000Z,473.08251953125
2023-05-18T04:11:44.000Z,473.8399658203125
2023-05-18T04:12:46.000Z,470.4761962890625
2023-05-18T04:13:48.000Z,469.981689453125
2023-05-18T04:14:50.000Z,468.5691833496094
2023-05-18T04:15:52.000Z,469.2517395019531
2023-05-18T04:16:54.000Z,468.2648620605469
2023-05-18T04:17:56.000Z,467.12506103515625
2023-05-18T04:18:59.000Z,470.1911926269531
2023-05-18T04:20:01.000Z,468.6062927246094
2023-05-18T04:21:03.000Z,466.6123962402344
2023-05-18T04:22:05.000Z,465.48553466796875
2023-05-18T04:23:07.000Z,465.2092590332031
2023-05-18T04:24:09.000Z,464.46856689453125
2023-05-18T04:25:12.000Z,463.69085693359375
2023-05-18T04:26:14.000Z,464.92327880859375
2023-05-18T04:27:16.000Z,466.31951904296875
2023-05-18T04:28:18.000Z,465.4555358886719
2023-05-18T04:29:20.000Z,468.1069641113281
2023-05-18T04:30:22.000Z,467.3161315917969
2023-05-18T04:31:24.000Z,466.14007568359375
2023-05-18T04:32:27.000Z,465.1968688964844
2023-05-18T04:33:29.000Z,464.5564270019531
2023-05-18T04:34:31.000Z,464.01300048828125
2023-05-18T04:35:33.000Z,462.4192810058594
2023-05-18T04:36:35.000Z,463.8419494628906
2023-05-18T04:37:37.000Z,464.5558776855469
2023-05-18T04:38:39.000Z,462.9823303222656
2023-05-18T04:39:42.000Z,460.5233154296875
2023-05-18T04:40:44.000Z,461.7206115722656
2023-05-18T04:41:46.000Z,460.7855224609375
2023-05-18T04:42:48.000Z,460.92730712890625
2023-05-18T04:43:50.000Z,459.6399230957031
2023-05-18T04:44:52.000Z,461.27740478515625
2023-05-18T04:45:55.000Z,458.9643249511719
2023-05-18T04:46:57.000Z,458.1357116699219
2023-05-18T04:47:59.000Z,459.160400390625
2023-05-18T04:49:01.000Z,458.86492919921875
2023-05-18T04:50:03.000Z,459.2400817871094
2023-05-18T04:51:05.000Z,459.8215637207031
2023-05-18T04:52:07.000Z,460.4226379394531
2023-05-18T04:53:10.000Z,463.03826904296875
2023-05-18T04:54:12.000Z,462.5919494628906
2023-05-18T04:55:14.000Z,459.98370361328125
2023-05-18T04:56:16.000Z,460.0873718261719
2023-05-18T04:57:18.000Z,459.8396911621094
2023-05-18T04:58:20.000Z,462.48583984375
2023-05-18T04:59:23.000Z,459.5482177734375
2023-05-18T05:00:25.000Z,458.27532958984375
2023-05-18T05:01:27.000Z,458.7893371582031
2023-05-18T05:02:29.000Z,458.0794677734375
2023-05-18T05:03:31.000Z,459.4002380371094
2023-05-18T05:04:33.000Z,457.060546875
2023-05-18T05:05:35.000Z,455.70965576171875
2023-05-18T05:06:38.000Z,454.6409606933594
2023-05-18T05:07:40.000Z,455.2065734863281
2023-05-18T05:08:42.000Z,457.8008728027344
2023-05-18T05:09:44.000Z,457.4948425292969
2023-05-18T05:10:46.000Z,456.64788818359375
2023-05-18T05:11:48.000Z,455.7435302734375
2023-05-18T05:12:51.000Z,454.65740966796875
2023-05-18T05:13:53.000Z,453.0101623535156
2023-05-18T05:14:55.000Z,450.7275695800781
2023-05-18T05:15:57.000Z,446.9895935058594
2023-05-18T05:16:59.000Z,447.8734436035156
2023-05-18T05:18:01.000Z,447.29364013671875
2023-05-18T05:19:04.000Z,446.1294250488281
2023-05-18T05:20:06.000Z,445.9820251464844
2023-05-18T05:21:08.000Z,447.18792724609375
2023-05-18T05:22:10.000Z,449.3819885253906
2023-05-18T05:23:12.000Z,446.57281494140625
2023-05-18T05:24:14.000Z,444.25927734375
2023-05-18T05:25:17.000Z,445.2629699707031
2023-05-18T05:26:19.000Z,447.0420837402344
2023-05-18T05:27:21.000Z,445.53033447265625
2023-05-18T05:28:23.000Z,447.0938415527344
2023-05-18T05:29:25.000Z,447.8838806152344
2023-05-18T05:30:27.000Z,448.77069091796875
2023-05-18T05:31:29.000Z,447.58251953125
2023-05-18T05:32:32.000Z,446.2603759765625
2023-05-18T05:33:35.000Z,444.76080322265625
2023-05-18T05:34:37.000Z,447.61749267578125
2023-05-18T05:35:39.000Z,446.925048828125
2023-05-18T05:36:41.000Z,448.6537780761719
2023-05-18T05:37:43.000Z,449.0181884765625
2023-05-18T05:38:46.000Z,450.6332702636719
2023-05-18T05:39:48.000Z,452.64276123046875
2023-05-18T05:40:50.000Z,451.61773681640625
2023-05-18T05:41:52.000Z,454.1210632324219
2023-05-18T05:42:54.000Z,455.5137634277344
2023-05-18T05:43:56.000Z,456.7140197753906
2023-05-18T05:44:58.000Z,456.34576416015625
2023-05-18T05:46:01.000Z,453.99847412109375
2023-05-18T05:47:03.000Z,451.18206787109375
2023-05-18T05:48:05.000Z,449.63824462890625
2023-05-18T05:49:07.000Z,449.9772033691406
2023-05-18T05:50:09.000Z,449.6042175292969
2023-05-18T05:51:11.000Z,450.40008544921875
2023-05-18T05:52:14.000Z,451.3681945800781
2023-05-18T05:53:16.000Z,451.7463073730469
2023-05-18T05:54:18.000Z,451.3539733886719
2023-05-18T05:55:20.000Z,453.037841796875
2023-05-18T05:56:22.000Z,454.4747009277344
2023-05-18T05:57:24.000Z,453.32373046875
2023-05-18T05:58:26.000Z,452.2499694824219
2023-05-18T05:59:29.000Z,448.3932189941406
2023-05-18T06:00:31.000Z,448.180419921875
2023-05-18T06:01:33.000Z,445.19049072265625
2023-05-18T06:02:35.000Z,443.8668212890625
2023-05-18T06:03:37.000Z,443.6988525390625
2023-05-18T06:04:39.000Z,444.697509765625
2023-05-18T06:05:42.000Z,444.2508239746094
2023-05-18T06:06:44.000Z,445.82745361328125
2023-05-18T06:07:46.000Z,443.35723876953125
2023-05-18T06:08:48.000Z,440.88775634765625
2023-05-18T06:09:50.000Z,437.82489013671875
2023-05-18T06:10:52.000Z,435.8226623535156
2023-05-18T06:11:54.000Z,436.2284851074219
2023-05-18T06:12:57.000Z,435.47119140625
2023-05-18T06:13:59.000Z,435.8309631347656
2023-05-18T06:15:01.000Z,440.5139465332031
2023-05-18T06:16:03.000Z,442.7246398925781
2023-05-18T06:17:05.000Z,442.6232604980469
2023-05-18T06:18:08.000Z,443.471435546875
2023-05-18T06:19:10.000Z,444.6554870605469
2023-05-18T06:20:12.000Z,443.14886474609375
2023-05-18T06:21:14.000Z,443.1784362792969
2023-05-18T06:22:16.000Z,442.9634704589844
2023-05-18T06:23:18.000Z,444.3391418457031
2023-05-18T06:24:21.000Z,444.30950927734375
2023-05-18T06:25:23.000Z,441.6590270996094
2023-05-18T06:26:25.000Z,443.7137145996094
2023-05-18T06:27:27.000Z,444.3150329589844
2023-05-18T06:28:29.000Z,445.9065856933594
2023-05-18T06:29:31.000Z,445.9314880371094
2023-05-18T06:30:33.000Z,448.8807067871094
2023-05-18T06:31:36.000Z,447.7857666015625
2023-05-18T06:32:38.000Z,448.07415771484375
2023-05-18T06:33:40.000Z,448.34259033203125
2023-05-18T06:34:42.000Z,446.6850891113281
2023-05-18T06:35:44.000Z,448.4980773925781
2023-05-18T06:36:46.000Z,446.8685607910156
2023-05-18T06:37:49.000Z,443.5683288574219
2023-05-18T06:38:51.000Z,443.0099182128906
2023-05-18T06:39:53.000Z,443.70220947265625
2023-05-18T06:40:55.000Z,445.2960510253906
2023-05-18T06:41:57.000Z,446.0173645019531
2023-05-18T06:42:59.000Z,444.25732421875
2023-05-18T06:44:02.000Z,441.8168640136719
2023-05-18T06:45:04.000Z,443.1800842285156
2023-05-18T06:46:06.000Z,441.6855773925781
2023-05-18T06:47:08.000Z,443.9405517578125
2023-05-18T06:48:10.000Z,445.68597412109375
2023-05-18T06:49:12.000Z,449.4242248535156
2023-05-18T06:50:15.000Z,449.56549072265625
2023-05-18T06:51:17.000Z,447.1495361328125
2023-05-18T06:52:19.000Z,446.9201965332031
2023-05-18T06:53:21.000Z,446.214111328125
2023-05-18T06:54:23.000Z,445.8395690917969
2023-05-18T06:55:25.000Z,445.9205017089844
2023-05-18T06:56:28.000Z,446.6226501464844
2023-05-18T06:57:30.000Z,444.4036560058594
2023-05-18T06:58:32.000Z,441.01763916015625
2023-05-18T06:59:34.000Z,439.2221374511719
2023-05-18T07:00:36.000Z,443.517578125
2023-05-18T07:01:38.000Z,446.02423095703125
2023-05-18T07:02:40.000Z,445.2575378417969
2023-05-18T07:03:43.000Z,443.4509582519531
2023-05-18T07:04:45.000Z,441.76617431640625
2023-05-18T07:05:47.000Z,438.1521911621094
2023-05-18T07:06:49.000Z,440.47174072265625
2023-05-18T07:07:51.000Z,439.43359375
2023-05-18T07:08:53.000Z,439.3627014160156
2023-05-18T07:09:55.000Z,439.2537536621094
2023-05-18T07:10:59.000Z,438.2710266113281
2023-05-18T07:12:01.000Z,438.3783874511719
2023-05-18T07:13:03.000Z,438.8844299316406
2023-05-18T07:14:05.000Z,438.63763427734375
2023-05-18T07:15:07.000Z,439.0914611816406
2023-05-18T07:16:09.000Z,438.244140625
2023-05-18T07:17:12.000Z,438.0240783691406
2023-05-18T07:18:14.000Z,439.9263610839844
2023-05-18T07:19:16.000Z,439.7865905761719
2023-05-18T07:20:18.000Z,438.2282409667969
2023-05-18T07:21:20.000Z,436.9245300292969
2023-05-18T07:22:22.000Z,439.5823059082031
2023-05-18T07:23:25.000Z,440.4715270996094
2023-05-18T07:24:27.000Z,438.7789306640625
2023-05-18T07:25:29.000Z,438.9943542480469
2023-05-18T07:26:31.000Z,438.2436218261719
2023-05-18T07:27:33.000Z,439.4489440917969
2023-05-18T07:28:35.000Z,437.17034912109375
2023-05-18T07:29:38.000Z,437.3602294921875
2023-05-18T07:30:40.000Z,435.43353271484375
2023-05-18T07:31:42.000Z,433.42095947265625
2023-05-18T07:32:44.000Z,432.38336181640625
2023-05-18T07:33:46.000Z,434.2908020019531
2023-05-18T07:34:48.000Z,435.5330810546875
2023-05-18T07:35:51.000Z,434.6944274902344
2023-05-18T07:36:53.000Z,436.12127685546875
2023-05-18T07:37:55.000Z,436.6830749511719
2023-05-18T07:38:57.000Z,437.5148620605469
2023-05-18T07:39:59.000Z,437.3044128417969
2023-05-18T07:41:01.000Z,435.8930358886719
2023-05-18T07:42:04.000Z,435.1121520996094
2023-05-18T07:43:06.000Z,436.268310546875
2023-05-18T07:44:08.000Z,435.91522216796875
2023-05-18T07:45:10.000Z,429.5068359375
2023-05-18T07:46:12.000Z,428.9915771484375
2023-05-18T07:47:14.000Z,429.67938232421875
2023-05-18T07:48:17.000Z,427.5649108886719
2023-05-18T07:49:19.000Z,426.43646240234375
2023-05-18T07:50:21.000Z,425.2323303222656
2023-05-18T07:51:23.000Z,425.3411560058594
2023-05-18T07:52:25.000Z,425.8765869140625
2023-05-18T07:53:27.000Z,424.71466064453125
2023-05-18T07:54:29.000Z,423.0072937011719
2023-05-18T07:55:32.000Z,421.69873046875
2023-05-18T07:56:34.000Z,420.10986328125
2023-05-18T07:57:36.000Z,419.9216613769531
2023-05-18T07:58:38.000Z,421.9652404785156
2023-05-18T07:59:40.000Z,422.15972900390625
2023-05-18T08:00:42.000Z,423.4636535644531
2023-05-18T08:01:45.000Z,423.544921875
2023-05-18T08:02:47.000Z,423.3141174316406
2023-05-18T08:03:49.000Z,426.1640625
2023-05-18T08:04:51.000Z,428.09808349609375
2023-05-18T08:05:53.000Z,427.13995361328125
2023-05-18T08:06:55.000Z,427.2451171875
2023-05-18T08:07:57.000Z,427.2862243652344
2023-05-18T08:09:00.000Z,426.4818420410156
2023-05-18T08:10:02.000Z,426.5211486816406
2023-05-18T08:11:04.000Z,424.457763671875
2023-05-18T08:12:06.000Z,421.6300964355469
2023-05-18T08:13:08.000Z,420.0640869140625
2023-05-18T08:14:10.000Z,417.5566711425781
2023-05-18T08:15:13.000Z,417.0085754394531
2023-05-18T08:16:15.000Z,416.5470886230469
2023-05-18T08:17:17.000Z,416.5965881347656
2023-05-18T08:18:19.000Z,418.4134216308594
2023-05-18T08:19:21.000Z,420.1083068847656
2023-05-18T08:20:23.000Z,420.6812438964844
2023-05-18T08:21:26.000Z,421.7970275878906
2023-05-18T08:22:28.000Z,423.00225830078125
2023-05-18T08:23:30.000Z,423.1516418457031
2023-05-18T08:24:32.000Z,422.98956298828125
2023-05-18T08:25:34.000Z,419.95635986328125
2023-05-18T08:26:36.000Z,420.6208190917969
2023-05-18T08:27:38.000Z,421.78546142578125
2023-05-18T08:28:41.000Z,422.93414306640625
2023-05-18T08:29:43.000Z,423.95672607421875
2023-05-18T08:30:45.000Z,422.91278076171875
2023-05-18T08:31:47.000Z,424.0340576171875
2023-05-18T08:32:49.000Z,423.5581359863281
2023-05-18T08:33:51.000Z,422.65045166015625
2023-05-18T08:34:53.000Z,422.782470703125
2023-05-18T08:35:56.000Z,422.3143615722656
2023-05-18T08:36:58.000Z,424.43426513671875
2023-05-18T08:38:00.000Z,423.31011962890625
2023-05-18T08:39:02.000Z,422.6487121582031
2023-05-18T08:40:04.000Z,423.08929443359375
2023-05-18T08:41:06.000Z,422.46246337890625
2023-05-18T08:42:08.000Z,423.6851501464844
2023-05-18T08:43:11.000Z,422.6976318359375
2023-05-18T08:44:13.000Z,423.0506591796875
2023-05-18T08:45:15.000Z,422.5748291015625
2023-05-18T08:46:17.000Z,422.3695373535156
2023-05-18T08:47:19.000Z,421.2637939453125
2023-05-18T08:48:21.000Z,423.5555725097656
2023-05-18T08:49:24.000Z,422.802734375
2023-05-18T08:50:26.000Z,421.23968505859375
2023-05-18T08:51:28.000Z,422.45172119140625
2023-05-18T08:52:30.000Z,422.13092041015625
2023-05-18T08:53:32.000Z,422.0002136230469
2023-05-18T08:54:39.000Z,422.0943603515625
2023-05-18T08:55:41.000Z,426.0957946777344
2023-05-18T08:56:44.000Z,427.0802917480469
2023-05-18T08:57:46.000Z,426.45751953125
2023-05-18T08:58:48.000Z,426.5144958496094
2023-05-18T08:59:50.000Z,425.1885681152344
2023-05-18T09:00:52.000Z,427.57000732421875
2023-05-18T09:01:54.000Z,426.23834228515625
2023-05-18T09:02:57.000Z,424.6299743652344
2023-05-18T09:03:59.000Z,425.66668701171875
2023-05-18T09:05:01.000Z,424.38134765625
2023-05-18T09:06:03.000Z,421.9958801269531
2023-05-18T09:07:05.000Z,421.3933410644531
2023-05-18T09:08:07.000Z,422.9870910644531
2023-05-18T09:09:10.000Z,422.8138122558594
2023-05-18T09:10:12.000Z,423.9486389160156
2023-05-18T09:11:14.000Z,425.7177734375
2023-05-18T09:12:16.000Z,426.1682434082031
2023-05-18T09:13:18.000Z,425.5894470214844
2023-05-18T09:14:20.000Z,422.08258056640625
2023-05-18T09:15:22.000Z,421.7608642578125
2023-05-18T09:16:25.000Z,423.01910400390625
2023-05-18T09:17:27.000Z,423.7702331542969
2023-05-18T09:18:29.000Z,426.18170166015625
2023-05-18T09:19:31.000Z,428.84906005859375
2023-05-18T09:20:33.000Z,429.9856262207031
2023-05-18T09:21:35.000Z,431.0873107910156
2023-05-18T09:22:37.000Z,430.7640686035156
2023-05-18T09:23:40.000Z,429.3005065917969
2023-05-18T09:24:42.000Z,430.3116149902344
2023-05-18T09:25:44.000Z,430.065185546875
2023-05-18T09:26:46.000Z,429.88861083984375
2023-05-18T09:27:48.000Z,430.740966796875
2023-05-18T09:28:50.000Z,430.5041198730469
2023-05-18T09:29:53.000Z,430.94329833984375
2023-05-18T09:30:55.000Z,431.35333251953125
2023-05-18T09:31:57.000Z,430.6584777832031
2023-05-18T09:32:59.000Z,432.0162353515625
2023-05-18T09:34:01.000Z,431.6014099121094
2023-05-18T09:35:03.000Z,433.1051330566406
2023-05-18T09:36:05.000Z,432.202880859375
2023-05-18T09:37:08.000Z,428.3802795410156